Time;durP1;ratioP1;P1;durP2;ratioP2;P2;SDS_P1;SDS_P2;PMS_P1;PMS_P2;Temp;Humidity;BMP_temperature;BMP_pressure;BME280_temperature;BME280_humidity;BME280_pressure;Samples;Min_cycle;Max_cycle;Signal;HPM_P1;HPM_P2
2022/06/29 00:00:37;;;;;;;3.70;3.50;;;;;;;21.80;100.00;99516.91;5050309;28;20704;-70
2022/06/29 00:03:04;;;;;;;3.20;3.10;;;;;;;21.49;100.00;99489.63;5050683;28;20213;-69
2022/06/29 00:05:31;;;;;;;3.30;3.20;;;;;;;21.48;100.00;99511.47;5050941;28;20288;-69
2022/06/29 00:07:58;;;;;;;3.33;3.23;;;;;;;21.38;100.00;99507.84;5050331;28;20206;-70
2022/06/29 00:10:25;;;;;;;2.93;2.70;;;;;;;21.34;100.00;99504.63;5050397;28;20193;-69
2022/06/29 00:12:53;;;;;;;4.53;3.23;;;;;;;21.27;100.00;99494.75;5050615;28;20207;-70
2022/06/29 00:15:20;;;;;;;2.80;2.70;;;;;;;21.26;100.00;99496.53;5051264;28;20205;-70
2022/06/29 00:17:49;;;;;;;3.20;3.00;;;;;;;21.22;100.00;99492.50;5049596;28;20264;-69
2022/06/29 00:20:16;;;;;;;3.00;2.90;;;;;;;21.09;100.00;99470.84;5050788;28;20281;-69
2022/06/29 00:22:44;;;;;;;2.80;2.70;;;;;;;21.14;100.00;99486.16;5050986;28;20200;-69
2022/06/29 00:25:13;;;;;;;2.77;2.67;;;;;;;21.15;100.00;99485.22;5050315;28;20209;-70
2022/06/29 00:27:40;;;;;;;2.90;2.80;;;;;;;21.15;100.00;99493.03;5051085;28;20200;-69
2022/06/29 00:30:09;;;;;;;3.70;3.40;;;;;;;21.12;100.00;99490.66;5044602;28;20266;-70
2022/06/29 00:32:36;;;;;;;2.50;2.40;;;;;;;21.07;100.00;99482.28;5051246;28;20204;-70
2022/06/29 00:35:05;;;;;;;3.00;2.90;;;;;;;21.20;100.00;99490.91;5050579;28;20204;-70
2022/06/29 00:37:32;;;;;;;2.90;2.80;;;;;;;21.25;100.00;99483.63;5050381;28;20210;-70
2022/06/29 00:39:59;;;;;;;3.40;3.20;;;;;;;21.29;100.00;99485.88;5050745;28;20228;-69
2022/06/29 00:42:25;;;;;;;2.53;2.43;;;;;;;21.36;100.00;99494.06;5034558;28;20215;-70
2022/06/29 00:44:52;;;;;;;2.80;2.70;;;;;;;21.35;100.00;99489.81;5049648;28;20237;-69
2022/06/29 00:47:19;;;;;;;2.90;2.70;;;;;;;21.31;100.00;99483.16;5050998;28;20198;-70
2022/06/29 00:49:47;;;;;;;2.77;2.67;;;;;;;21.25;100.00;99488.81;5049847;28;20200;-70
2022/06/29 00:52:17;;;;;;;3.30;3.20;;;;;;;21.28;100.00;99488.59;5035131;28;20295;-69
2022/06/29 00:54:46;;;;;;;3.10;3.00;;;;;;;21.26;100.00;99493.09;5031060;28;20684;-70
2022/06/29 00:57:15;;;;;;;3.10;3.00;;;;;;;21.25;100.00;99499.25;5044998;28;20208;-69
2022/06/29 00:59:45;;;;;;;3.73;3.50;;;;;;;21.25;100.00;99494.03;5049898;28;20231;-70
2022/06/29 01:02:14;;;;;;;3.10;3.00;;;;;;;21.16;100.00;99484.28;5045319;28;20212;-70
2022/06/29 01:04:41;;;;;;;3.37;3.07;;;;;;;21.15;100.00;99487.81;5049512;28;20672;-68
2022/06/29 01:07:09;;;;;;;2.73;2.53;;;;;;;21.11;100.00;99474.16;5050524;28;20206;-69
2022/06/29 01:09:38;;;;;;;3.13;3.03;;;;;;;21.05;100.00;99477.19;5048819;28;20203;-70
2022/06/29 01:12:05;;;;;;;2.93;2.83;;;;;;;21.04;100.00;99469.47;5035177;28;20235;-69
2022/06/29 01:14:32;;;;;;;3.07;2.97;;;;;;;21.02;100.00;99471.38;5030512;28;20208;-69
2022/06/29 01:16:59;;;;;;;3.50;3.40;;;;;;;20.98;100.00;99469.91;5046998;28;20212;-70
2022/06/29 01:19:26;;;;;;;3.70;3.60;;;;;;;20.87;100.00;99453.25;5049432;28;20226;-70
2022/06/29 01:21:56;;;;;;;3.60;3.40;;;;;;;20.80;100.00;99457.28;5049666;28;20201;-70
2022/06/29 01:24:24;;;;;;;3.77;3.40;;;;;;;20.80;100.00;99446.84;5050064;28;20204;-69
2022/06/29 01:26:51;;;;;;;3.30;3.13;;;;;;;20.89;100.00;99461.81;5050403;28;20254;-70
2022/06/29 01:29:18;;;;;;;3.50;3.30;;;;;;;20.88;100.00;99454.09;5047786;28;20215;-69
2022/06/29 01:31:45;;;;;;;3.57;3.43;;;;;;;20.77;100.00;99436.66;5048539;28;20787;-70
2022/06/29 01:34:12;;;;;;;3.13;3.03;;;;;;;20.86;100.00;99453.38;5039965;28;20624;-70
2022/06/29 01:36:39;;;;;;;3.33;3.13;;;;;;;20.86;100.00;99454.22;5047319;28;20794;-69
2022/06/29 01:39:06;;;;;;;3.27;3.10;;;;;;;20.82;100.00;99455.38;5047391;28;20310;-70
2022/06/29 01:41:34;;;;;;;3.70;3.50;;;;;;;20.89;100.00;99453.16;5047965;28;20241;-69
2022/06/29 01:44:01;;;;;;;3.53;3.33;;;;;;;20.80;100.00;99440.81;5048761;28;20221;-70
2022/06/29 01:46:28;;;;;;;3.20;3.10;;;;;;;20.80;100.00;99431.22;5049946;28;20250;-69
2022/06/29 01:48:54;;;;;;;3.63;3.33;;;;;;;20.87;100.00;99444.63;5049221;28;20735;-70
2022/06/29 01:51:21;;;;;;;3.70;2.60;;;;;;;20.84;100.00;99440.44;5049394;28;20202;-70
2022/06/29 01:53:48;;;;;;;3.20;3.10;;;;;;;20.84;100.00;99443.06;5048477;28;20205;-70
2022/06/29 01:56:15;;;;;;;3.10;3.00;;;;;;;20.82;100.00;99439.75;5048516;28;20206;-70
2022/06/29 01:58:43;;;;;;;3.00;2.90;;;;;;;20.83;100.00;99440.56;5049656;28;20212;-70
2022/06/29 02:01:10;;;;;;;2.83;2.73;;;;;;;20.82;100.00;99449.31;5048550;28;20229;-71
2022/06/29 02:03:37;;;;;;;3.73;3.53;;;;;;;20.84;100.00;99443.06;5049145;28;20204;-69
2022/06/29 02:06:04;;;;;;;2.80;2.70;;;;;;;20.83;100.00;99444.03;5048949;28;20210;-70
2022/06/29 02:08:31;;;;;;;3.63;3.33;;;;;;;20.90;99.58;99450.44;5049656;28;20209;-70
2022/06/29 02:10:58;;;;;;;3.43;3.23;;;;;;;20.89;99.43;99442.75;5048568;28;20207;-70
2022/06/29 02:13:25;;;;;;;3.57;3.37;;;;;;;20.86;98.93;99451.63;5049856;28;20208;-70
2022/06/29 02:15:54;;;;;;;3.10;3.00;;;;;;;20.77;98.79;99428.84;5048842;28;20221;-70
2022/06/29 02:18:21;;;;;;;3.07;2.97;;;;;;;20.81;97.49;99438.06;5047892;28;20749;-70
2022/06/29 02:20:48;;;;;;;3.40;3.30;;;;;;;20.93;96.82;99452.84;5049598;28;20215;-69
2022/06/29 02:23:15;;;;;;;3.10;2.97;;;;;;;20.84;95.90;99440.44;5049948;28;20208;-70
2022/06/29 02:25:42;;;;;;;3.53;3.27;;;;;;;20.99;95.97;99455.94;5048873;28;20666;-70
2022/06/29 02:28:09;;;;;;;3.10;2.97;;;;;;;20.99;96.76;99450.72;5049260;28;20208;-70
2022/06/29 02:36:13;;;;;;;3.20;3.00;;;;;;;20.91;95.76;99444.28;5049205;28;20209;-70
2022/06/29 02:38:40;;;;;;;3.23;3.13;;;;;;;20.94;95.39;99443.22;5047349;28;20584;-69
2022/06/29 02:41:07;;;;;;;3.80;3.60;;;;;;;20.96;95.54;99441.38;5031098;28;20609;-69
2022/06/29 02:43:34;;;;;;;3.77;3.57;;;;;;;20.95;95.25;99443.13;5030753;28;20204;-70
2022/06/29 02:46:00;;;;;;;3.57;3.37;;;;;;;21.01;93.98;99438.41;5047719;28;20200;-69
2022/06/29 02:48:29;;;;;;;3.67;3.57;;;;;;;21.06;93.05;99436.31;5048673;28;20209;-70
2022/06/29 02:50:56;;;;;;;4.97;3.23;;;;;;;21.10;92.48;99432.59;5048641;28;20200;-69
2022/06/29 02:53:22;;;;;;;3.90;3.60;;;;;;;21.14;92.24;99439.22;5052299;28;20295;-69
2022/06/29 02:55:49;;;;;;;3.00;2.90;;;;;;;21.17;92.57;99436.38;5050777;28;20676;-70
2022/06/29 02:58:16;;;;;;;3.83;3.20;;;;;;;21.07;92.30;99433.59;5052470;28;20218;-71
2022/06/29 03:00:43;;;;;;;3.27;3.17;;;;;;;21.17;92.25;99442.44;5052861;28;20220;-70
2022/06/29 03:03:10;;;;;;;3.90;3.70;;;;;;;21.11;92.31;99435.06;5051384;28;20679;-69
2022/06/29 03:05:38;;;;;;;3.00;2.90;;;;;;;21.19;92.48;99448.41;5053083;28;20738;-70
2022/06/29 03:08:06;;;;;;;3.33;3.23;;;;;;;21.19;92.95;99444.94;5051931;28;20210;-70
2022/06/29 03:10:33;;;;;;;4.10;3.80;;;;;;;21.19;92.85;99444.94;5051979;28;20199;-70
2022/06/29 03:13:00;;;;;;;2.97;2.87;;;;;;;21.15;93.42;99441.72;5051019;28;20200;-70
2022/06/29 03:15:26;;;;;;;3.13;3.03;;;;;;;21.15;93.25;99440.91;5052102;28;20664;-70
2022/06/29 03:17:53;;;;;;;3.47;3.37;;;;;;;21.16;93.01;99426.94;5052306;28;20190;-70
2022/06/29 03:20:20;;;;;;;3.57;3.37;;;;;;;21.15;93.17;99435.69;5051336;28;20223;-70
2022/06/29 03:22:48;;;;;;;3.33;3.13;;;;;;;21.13;93.44;99432.38;5052353;28;20208;-73
2022/06/29 03:25:15;;;;;;;3.40;3.30;;;;;;;21.18;93.50;99435.44;5051738;28;20694;-70
2022/06/29 03:27:42;;;;;;;3.43;3.33;;;;;;;21.18;93.31;99427.63;5050227;28;20201;-71
2022/06/29 03:30:10;;;;;;;4.20;4.00;;;;;;;21.22;93.26;99429.06;5051170;28;20608;-70
2022/06/29 03:32:37;;;;;;;3.40;3.30;;;;;;;21.18;93.55;99425.03;5051290;28;20201;-70
2022/06/29 03:35:05;;;;;;;4.03;3.63;;;;;;;21.19;92.82;99419.72;5042774;28;20193;-70
2022/06/29 03:37:32;;;;;;;3.27;3.07;;;;;;;21.13;92.72;99408.91;5036343;28;20308;-69
2022/06/29 03:40:00;;;;;;;3.40;3.20;;;;;;;21.24;93.07;99429.78;5047811;28;20219;-69
2022/06/29 03:42:27;;;;;;;4.07;3.80;;;;;;;21.25;92.73;99431.47;5048531;28;20578;-70
2022/06/29 03:44:54;;;;;;;3.33;3.20;;;;;;;21.29;92.85;99427.69;5049146;28;20280;-70
2022/06/29 03:47:21;;;;;;;3.67;3.37;;;;;;;21.34;92.47;99428.16;5049390;28;20204;-71
2022/06/29 03:49:47;;;;;;;3.67;3.50;;;;;;;21.32;92.68;99430.91;5049305;28;20270;-69
2022/06/29 03:52:14;;;;;;;3.50;3.40;;;;;;;21.35;93.29;99433.28;5048475;28;20678;-70
2022/06/29 03:54:41;;;;;;;3.00;2.80;;;;;;;21.36;93.39;99429.72;5048320;28;20203;-69
2022/06/29 03:57:09;;;;;;;3.87;3.60;;;;;;;21.44;92.55;99426.56;5048375;28;20200;-70
2022/06/29 03:59:36;;;;;;;3.27;3.10;;;;;;;21.60;91.86;99427.06;5050280;28;20286;-70
2022/06/29 04:02:03;;;;;;;3.50;3.40;;;;;;;21.71;91.94;99434.91;5049598;28;20462;-70
2022/06/29 04:04:30;;;;;;;3.60;3.40;;;;;;;21.86;91.53;99433.75;5050732;28;20216;-70
2022/06/29 04:06:57;;;;;;;3.20;3.10;;;;;;;21.95;90.94;99432.25;5037547;28;20213;-69
2022/06/29 04:09:24;;;;;;;3.93;3.63;;;;;;;22.00;90.65;99429.31;5040030;28;20205;-69
2022/06/29 04:11:52;;;;;;;3.50;3.30;;;;;;;22.07;90.42;99425.28;5051333;28;20627;-70
2022/06/29 04:14:22;;;;;;;4.73;3.10;;;;;;;22.17;90.71;99421.00;5051154;28;20203;-69
2022/06/29 04:16:50;;;;;;;3.90;3.70;;;;;;;22.22;89.65;99408.44;5050966;28;20220;-70
2022/06/29 04:19:16;;;;;;;3.63;3.50;;;;;;;22.40;89.41;99417.41;5051498;28;20196;-70
2022/06/29 04:21:43;;;;;;;3.70;3.60;;;;;;;22.49;88.42;99417.53;5050115;28;20220;-70
2022/06/29 04:24:11;;;;;;;3.07;2.97;;;;;;;22.67;88.28;99415.28;5051294;28;20692;-70
2022/06/29 04:26:38;;;;;;;3.00;2.70;;;;;;;22.83;87.23;99420.13;5050038;28;20215;-69
2022/06/29 04:29:05;;;;;;;3.30;3.10;;;;;;;22.98;86.52;99413.66;5051081;28;20196;-69
2022/06/29 04:31:33;;;;;;;3.60;3.50;;;;;;;23.13;86.00;99422.06;5051267;28;20204;-69
2022/06/29 04:34:00;;;;;;;3.50;3.20;;;;;;;23.25;85.07;99421.88;5049553;28;20259;-69
2022/06/29 04:36:27;;;;;;;3.17;2.97;;;;;;;23.37;84.99;99412.19;5051215;28;20204;-71
2022/06/29 04:38:54;;;;;;;3.30;3.20;;;;;;;23.47;83.27;99421.81;5049855;28;20224;-69
2022/06/29 04:41:21;;;;;;;3.40;3.30;;;;;;;23.58;83.17;99423.53;5051195;28;20338;-69
2022/06/29 04:43:48;;;;;;;3.20;2.90;;;;;;;23.68;83.73;99429.66;5050625;28;20679;-70
2022/06/29 04:46:21;;;;;;;2.93;2.83;;;;;;;23.82;83.24;99420.63;5047271;28;20208;-70
2022/06/29 04:48:51;;;;;;;3.23;3.13;;;;;;;24.16;82.07;99429.13;5047956;28;20239;-70
2022/06/29 04:51:19;;;;;;;3.20;2.83;;;;;;;24.38;79.99;99439.41;5050280;28;20200;-70
2022/06/29 04:53:46;;;;;;;3.10;3.00;;;;;;;24.58;78.05;99441.13;5050796;28;20209;-70
2022/06/29 04:56:13;;;;;;;3.57;3.27;;;;;;;24.75;78.09;99435.22;5047383;28;20231;-70
2022/06/29 04:58:40;;;;;;;3.93;3.00;;;;;;;24.80;78.04;99433.06;5049308;28;20216;-70
2022/06/29 05:01:07;;;;;;;3.87;3.67;;;;;;;25.01;75.76;99446.06;5048724;28;20256;-70
2022/06/29 05:03:34;;;;;;;3.10;3.00;;;;;;;25.15;76.53;99447.47;5049297;28;20203;-70
2022/06/29 05:06:03;;;;;;;3.20;2.90;;;;;;;25.21;76.78;99447.75;5048604;28;20258;-70
2022/06/29 05:08:30;;;;;;;3.10;3.00;;;;;;;25.34;77.75;99447.47;5048780;28;20258;-70
2022/06/29 05:10:57;;;;;;;3.50;3.37;;;;;;;25.59;76.72;99449.56;5046406;28;20207;-70
2022/06/29 05:13:23;;;;;;;3.27;3.17;;;;;;;25.85;75.99;99450.63;5047960;28;20657;-69
2022/06/29 05:15:50;;;;;;;2.97;2.87;;;;;;;25.98;73.96;99461.66;5048554;28;20265;-70
2022/06/29 05:18:17;;;;;;;3.40;3.10;;;;;;;26.17;75.13;99454.72;5048738;28;20576;-71
2022/06/29 05:20:44;;;;;;;3.00;2.90;;;;;;;26.27;73.29;99455.53;5048162;28;20634;-70
2022/06/29 05:23:12;;;;;;;3.63;3.30;;;;;;;26.38;72.59;99444.81;5048478;28;20262;-70
2022/06/29 05:25:40;;;;;;;3.77;3.43;;;;;;;26.56;73.48;99448.31;5041748;28;20673;-70
2022/06/29 05:28:07;;;;;;;4.37;4.17;;;;;;;26.63;72.28;99436.25;5047810;28;20410;-70
2022/06/29 05:30:34;;;;;;;3.83;3.57;;;;;;;26.88;69.46;99450.53;5047553;28;20232;-69
2022/06/29 05:33:01;;;;;;;3.67;3.47;;;;;;;27.01;68.67;99446.53;5047884;28;20208;-71
2022/06/29 05:35:29;;;;;;;2.83;2.67;;;;;;;27.22;68.51;99453.34;5049010;28;20592;-70
2022/06/29 05:37:57;;;;;;;3.87;3.33;;;;;;;27.48;70.24;99438.47;5049423;28;20291;-71
2022/06/29 05:40:25;;;;;;;3.37;2.83;;;;;;;27.60;68.24;99442.50;5048628;28;20224;-70
2022/06/29 05:42:52;;;;;;;2.97;2.77;;;;;;;27.76;67.30;99445.25;5045820;28;20232;-71
2022/06/29 05:45:20;;;;;;;4.40;3.17;;;;;;;27.71;68.16;99426.44;5047060;28;20553;-71
2022/06/29 05:47:47;;;;;;;2.57;2.37;;;;;;;27.70;66.61;99443.22;5047278;28;20200;-71
2022/06/29 05:50:13;;;;;;;2.90;2.80;;;;;;;27.57;67.69;99437.53;5047956;28;20224;-72
2022/06/29 05:52:41;;;;;;;2.90;2.70;;;;;;;27.70;64.71;99448.50;5048932;28;20673;-70
2022/06/29 05:55:08;;;;;;;2.97;2.87;;;;;;;27.56;66.60;99441.97;5048528;28;20282;-72
2022/06/29 05:57:37;;;;;;;2.83;2.53;;;;;;;27.78;67.33;99445.94;5048630;28;20751;-71
2022/06/29 06:00:05;;;;;;;3.13;2.83;;;;;;;27.93;64.24;99444.38;5048054;28;20262;-72
2022/06/29 06:02:33;;;;;;;3.53;3.10;;;;;;;28.20;63.46;99440.78;5048673;28;20704;-71
2022/06/29 06:05:00;;;;;;;3.80;2.50;;;;;;;28.44;63.83;99437.41;5048950;28;20215;-71
2022/06/29 06:07:27;;;;;;;2.80;2.70;;;;;;;28.76;65.32;99442.03;5048158;28;20209;-71
2022/06/29 06:09:54;;;;;;;2.73;2.63;;;;;;;28.87;63.38;99439.91;5047175;28;20200;-72
2022/06/29 06:12:21;;;;;;;3.07;2.97;;;;;;;29.00;63.77;99439.44;5048099;28;20208;-71
2022/06/29 06:14:49;;;;;;;2.50;2.40;;;;;;;29.33;63.96;99448.25;5048297;28;20226;-72
2022/06/29 06:17:16;;;;;;;2.60;2.50;;;;;;;29.61;61.96;99449.56;5046039;28;20200;-71
2022/06/29 06:19:43;;;;;;;3.00;2.80;;;;;;;29.83;60.50;99454.19;5047718;28;20201;-72
2022/06/29 06:22:10;;;;;;;8.73;2.97;;;;;;;29.99;58.27;99459.44;5046618;28;20223;-72
2022/06/29 06:24:36;;;;;;;2.83;2.72;;;;;;;30.21;58.83;99437.56;5043682;28;20656;-71
2022/06/29 06:27:04;;;;;;;2.78;2.58;;;;;;;30.57;58.12;99450.34;5049050;28;20201;-71
2022/06/29 06:29:31;;;;;;;2.80;2.60;;;;;;;30.73;58.26;99453.75;5051528;28;20208;-70
2022/06/29 06:32:01;;;;;;;3.33;3.10;;;;;;;30.99;57.44;99453.47;5047357;28;20196;-69
2022/06/29 06:34:27;;;;;;;2.63;2.53;;;;;;;31.09;59.05;99438.19;5048024;28;20205;-69
2022/06/29 06:36:54;;;;;;;2.47;2.38;;;;;;;31.24;55.46;99462.09;5050039;28;20193;-69
2022/06/29 06:39:21;;;;;;;2.53;2.42;;;;;;;31.21;56.78;99454.50;5050880;28;20232;-69
2022/06/29 06:41:47;;;;;;;2.47;2.38;;;;;;;31.35;55.28;99458.19;5050876;28;20223;-70
2022/06/29 06:44:13;;;;;;;3.95;2.65;;;;;;;31.35;55.41;99447.59;5049716;28;20600;-71
2022/06/29 06:46:41;;;;;;;2.72;2.60;;;;;;;31.60;55.85;99455.19;5050800;28;20274;-71
2022/06/29 06:49:09;;;;;;;2.47;2.38;;;;;;;31.81;52.31;99459.81;5050828;28;20213;-72
2022/06/29 06:51:36;;;;;;;2.33;2.20;;;;;;;31.98;53.45;99465.78;5051611;28;20664;-70
2022/06/29 06:54:03;;;;;;;2.80;2.60;;;;;;;32.11;52.21;99460.69;5051596;28;20208;-70
2022/06/29 06:56:29;;;;;;;3.03;2.42;;;;;;;32.34;52.13;99464.09;5052506;28;20209;-69
2022/06/29 06:58:56;;;;;;;2.70;2.53;;;;;;;32.58;52.67;99447.06;5052345;28;20251;-68
2022/06/29 07:01:23;;;;;;;2.50;2.40;;;;;;;32.63;50.89;99440.19;5051457;28;20715;-68
2022/06/29 07:03:50;;;;;;;2.50;2.40;;;;;;;32.92;48.16;99465.03;5050875;28;20668;-68
2022/06/29 07:06:18;;;;;;;2.95;2.85;;;;;;;33.13;49.05;99459.75;5051728;28;20204;-68
2022/06/29 07:08:47;;;;;;;2.38;2.28;;;;;;;33.24;48.88;99452.13;5050443;28;20534;-69
2022/06/29 07:11:14;;;;;;;2.53;2.42;;;;;;;33.56;46.99;99471.22;5051907;28;20212;-70
2022/06/29 07:13:41;;;;;;;3.63;3.42;;;;;;;33.58;47.29;99459.38;5052279;28;20619;-68
2022/06/29 07:16:07;;;;;;;2.35;2.25;;;;;;;33.74;46.66;99467.09;5051761;28;20197;-69
2022/06/29 07:18:35;;;;;;;2.50;2.40;;;;;;;33.84;46.89;99461.44;5051258;28;20211;-70
2022/06/29 07:21:02;;;;;;;2.67;2.58;;;;;;;33.97;46.16;99461.53;5047277;28;20208;-69
2022/06/29 07:23:31;;;;;;;2.80;2.70;;;;;;;34.07;48.94;99456.69;5051880;28;20201;-70
2022/06/29 07:25:58;;;;;;;2.40;2.30;;;;;;;34.22;46.26;99464.56;5051836;28;20254;-70
2022/06/29 07:28:25;;;;;;;2.88;2.67;;;;;;;34.31;46.68;99467.91;5050662;28;20219;-69
2022/06/29 07:30:51;;;;;;;2.70;2.50;;;;;;;34.27;47.51;99465.63;5051673;28;20208;-71
2022/06/29 07:33:18;;;;;;;2.97;2.60;;;;;;;34.42;46.41;99454.03;5052344;28;20205;-69
2022/06/29 07:35:45;;;;;;;8.43;2.50;;;;;;;34.52;44.74;99444.66;5051805;28;20213;-69
2022/06/29 07:38:12;;;;;;;10.18;3.58;;;;;;;34.58;49.14;99451.84;5050746;28;20204;-68
2022/06/29 07:40:42;;;;;;;2.67;2.58;;;;;;;34.88;45.91;99459.56;5051047;28;20581;-69
2022/06/29 07:43:09;;;;;;;5.05;2.85;;;;;;;34.94;46.78;99459.56;5049318;28;20757;-69
2022/06/29 07:45:38;;;;;;;3.97;2.72;;;;;;;35.01;46.91;99460.41;5050946;28;20261;-68
2022/06/29 07:48:07;;;;;;;2.70;2.60;;;;;;;35.25;44.05;99457.19;5046858;28;20593;-69
2022/06/29 07:50:35;;;;;;;3.55;2.58;;;;;;;35.22;45.34;99452.28;5043919;28;20720;-69
2022/06/29 07:53:04;;;;;;;2.55;2.45;;;;;;;35.38;44.70;99456.41;5045285;28;20232;-68
2022/06/29 07:55:32;;;;;;;2.63;2.53;;;;;;;35.44;43.64;99460.09;5052139;28;20205;-69
2022/06/29 07:58:00;;;;;;;3.00;2.78;;;;;;;35.75;42.81;99457.66;5048354;28;20223;-70
2022/06/29 08:00:27;;;;;;;2.50;2.40;;;;;;;35.69;39.98;99463.81;5050142;28;20604;-70
2022/06/29 08:02:54;;;;;;;2.42;2.33;;;;;;;35.67;40.35;99457.88;5050420;28;20280;-70
2022/06/29 08:05:22;;;;;;;2.60;2.50;;;;;;;35.53;40.71;99453.53;5046460;28;20209;-69
2022/06/29 08:07:49;;;;;;;2.85;2.65;;;;;;;35.47;39.65;99460.53;5046693;28;20303;-70
2022/06/29 08:10:17;;;;;;;3.60;2.58;;;;;;;35.73;41.99;99459.72;5049948;28;20259;-70
2022/06/29 08:12:44;;;;;;;2.60;2.50;;;;;;;35.79;42.18;99464.22;5047614;28;20236;-69
2022/06/29 08:15:15;;;;;;;2.63;2.53;;;;;;;35.89;41.50;99461.13;5048841;28;20259;-69
2022/06/29 08:17:42;;;;;;;2.20;2.00;;;;;;;35.84;38.72;99467.09;5048618;28;20287;-72
2022/06/29 08:20:10;;;;;;;2.50;2.30;;;;;;;35.88;38.14;99470.97;5048108;28;20200;-71
2022/06/29 08:22:37;;;;;;;2.60;2.50;;;;;;;36.04;36.60;99461.72;5049715;28;20726;-71
2022/06/29 08:25:04;;;;;;;2.95;2.85;;;;;;;36.35;38.48;99463.75;5050602;28;20209;-71
2022/06/29 08:27:33;;;;;;;2.13;2.13;;;;;;;36.67;35.91;99457.47;5050946;28;20203;-71
2022/06/29 08:30:00;;;;;;;2.42;2.33;;;;;;;36.74;36.85;99458.25;5051949;28;20197;-77
2022/06/29 08:32:29;;;;;;;2.80;2.60;;;;;;;36.46;38.50;99460.41;5051859;28;20189;-71
2022/06/29 08:34:59;;;;;;;3.15;2.78;;;;;;;36.27;37.01;99473.63;5050281;28;20201;-71
2022/06/29 08:37:26;;;;;;;2.28;2.17;;;;;;;36.28;38.20;99469.94;5051764;28;20197;-71
2022/06/29 08:39:53;;;;;;;2.20;2.10;;;;;;;36.44;36.84;99462.47;5051578;28;20716;-71
2022/06/29 08:42:22;;;;;;;2.45;2.35;;;;;;;36.74;37.40;99468.94;5046242;28;20725;-71
2022/06/29 08:44:50;;;;;;;2.35;2.22;;;;;;;36.74;36.63;99452.91;5050019;28;20200;-74
2022/06/29 08:47:17;;;;;;;2.55;2.45;;;;;;;36.16;35.16;99470.75;5051258;28;20601;-81
2022/06/29 08:49:45;;;;;;;2.80;2.60;;;;;;;35.63;36.52;99464.66;5053018;28;20278;-72
2022/06/29 08:52:12;;;;;;;2.70;2.47;;;;;;;35.94;38.30;99462.16;5052283;28;20196;-70
2022/06/29 08:54:43;;;;;;;2.78;2.58;;;;;;;36.26;38.27;99461.28;5038987;28;20251;-71
2022/06/29 08:57:11;;;;;;;2.83;2.42;;;;;;;36.50;36.31;99473.13;5050777;28;20200;-78
2022/06/29 08:59:37;;;;;;;2.88;2.78;;;;;;;36.60;36.25;99478.88;5051226;28;20230;-72
2022/06/29 09:02:05;;;;;;;2.92;2.80;;;;;;;36.45;36.31;99477.47;5050960;28;20225;-74
2022/06/29 09:04:32;;;;;;;2.85;2.75;;;;;;;35.96;35.51;99475.31;5051169;28;20576;-79
2022/06/29 09:07:00;;;;;;;2.78;2.58;;;;;;;35.73;33.91;99475.72;5051206;28;20205;-73
2022/06/29 09:09:27;;;;;;;11.35;4.10;;;;;;;35.35;34.93;99480.00;5031937;28;20193;-72
2022/06/29 09:11:54;;;;;;;2.60;2.50;;;;;;;35.66;36.12;99488.25;5049699;28;20204;-71
2022/06/29 09:14:23;;;;;;;2.17;2.10;;;;;;;35.85;36.08;99474.06;5049892;28;20201;-78
2022/06/29 09:16:56;;;;;;;2.40;2.25;;;;;;;36.01;36.34;99473.63;5048299;28;20220;-70
2022/06/29 09:19:25;;;;;;;2.70;2.60;;;;;;;35.81;35.17;99478.16;5046949;28;20208;-81
2022/06/29 09:21:53;;;;;;;2.63;2.53;;;;;;;35.39;36.01;99473.22;5049946;28;20609;-80
2022/06/29 09:24:24;;;;;;;2.17;2.08;;;;;;;35.09;37.00;99478.88;5048595;28;20685;-73
2022/06/29 09:26:51;;;;;;;2.83;2.70;;;;;;;35.23;36.40;99485.91;5049915;28;20664;-70
2022/06/29 09:29:23;;;;;;;2.25;2.15;;;;;;;35.45;36.83;99483.06;5050105;28;20283;-71
2022/06/29 09:32:09;;;;;;;1.98;1.88;;;;;;;35.69;36.69;99485.16;5049695;28;20205;-79
2022/06/29 09:34:37;;;;;;;2.67;2.50;;;;;;;35.75;35.43;99495.00;5047421;28;20211;-76
2022/06/29 09:37:06;;;;;;;3.33;2.30;;;;;;;35.57;36.88;99484.94;5048617;28;20196;-71
2022/06/29 09:39:36;;;;;;;2.80;2.47;;;;;;;35.49;36.07;99474.47;5049302;28;20228;-78
2022/06/29 09:42:03;;;;;;;2.15;2.05;;;;;;;35.01;36.38;99476.41;5050281;28;20657;-75
2022/06/29 09:44:30;;;;;;;2.80;2.08;;;;;;;35.08;35.90;99466.59;5048828;28;20204;-69
2022/06/29 09:46:58;;;;;;;2.83;2.63;;;;;;;35.57;36.25;99473.44;5051707;28;20636;-78
2022/06/29 09:49:27;;;;;;;2.35;2.25;;;;;;;35.22;37.25;99460.28;5051436;28;20580;-70
2022/06/29 09:51:56;;;;;;;2.22;2.13;;;;;;;35.62;37.14;99468.34;5051224;28;20645;-70
2022/06/29 09:54:26;;;;;;;2.45;2.35;;;;;;;35.69;35.50;99474.50;5049254;28;20197;-71
2022/06/29 09:56:57;;;;;;;2.97;2.33;;;;;;;35.47;36.31;99483.69;5049469;28;20629;-80
2022/06/29 10:05:03;;;;;;;2.42;2.15;;;;;;;35.23;32.41;99469.09;5054134;28;20687;-79
2022/06/29 10:07:31;;;;;;;1.85;1.75;;;;;;;35.18;33.21;99461.72;5054288;28;20592;-71
2022/06/29 10:09:58;;;;;;;2.10;2.00;;;;;;;35.04;33.13;99465.34;5052631;28;20668;-79
2022/06/29 10:15:42;;;;;;;2.00;1.92;;;;;;;35.02;35.10;99469.25;5052200;28;20258;-68
2022/06/29 10:18:19;;;;;;;1.70;1.55;;;;;;;34.89;35.89;99469.19;5045222;28;20208;-73
2022/06/29 10:20:48;;;;;;;2.10;2.00;;;;;;;34.88;34.43;99449.72;5054088;28;20207;-77
2022/06/29 10:23:43;;;;;;;2.00;1.90;;;;;;;34.84;33.39;99466.31;5054303;28;20228;-80
2022/06/29 10:26:41;;;;;;;2.28;2.17;;;;;;;34.73;34.41;99454.41;5053612;28;20197;-74
2022/06/29 10:29:32;;;;;;;1.92;1.83;;;;;;;34.78;34.59;99465.28;5054207;28;20193;-75
2022/06/29 10:32:17;;;;;;;2.20;2.05;;;;;;;34.74;33.73;99450.69;5052805;28;20224;-71
2022/06/29 10:37:31;;;;;;;2.03;1.92;;;;;;;34.75;35.22;99466.50;5053951;28;20568;-79
2022/06/29 10:40:04;;;;;;;2.17;2.08;;;;;;;34.75;35.87;99463.81;5047618;28;20220;-74
2022/06/29 10:45:57;;;;;;;2.65;2.10;;;;;;;34.78;34.71;99449.28;5054042;28;20204;-71
2022/06/29 10:48:30;;;;;;;2.25;2.05;;;;;;;34.82;34.49;99447.88;5040163;28;20201;-78
2022/06/29 10:50:58;;;;;;;2.17;2.08;;;;;;;34.80;34.63;99420.59;5053065;28;20196;-73
2022/06/29 10:53:26;;;;;;;2.95;2.75;;;;;;;34.75;34.81;99445.19;5053853;28;20196;-79
2022/06/29 10:55:56;;;;;;;2.63;2.42;;;;;;;34.26;34.07;99444.53;5053491;28;20201;-79
2022/06/29 10:58:24;;;;;;;2.50;2.28;;;;;;;34.55;36.04;99438.09;5053710;28;20197;-77
2022/06/29 11:00:54;;;;;;;2.80;2.20;;;;;;;34.80;33.84;99442.72;5052842;28;20332;-75
2022/06/29 11:03:25;;;;;;;3.10;2.25;;;;;;;34.73;34.20;99441.91;5051463;28;20224;-73
2022/06/29 11:16:59;;;;;;;2.83;2.60;;;;;;;35.22;34.77;99440.81;5053174;28;20254;-70
2022/06/29 11:19:31;;;;;;;2.03;1.92;;;;;;;35.40;35.51;99437.53;5053309;28;20287;-70
2022/06/29 11:22:17;;;;;;;2.40;2.25;;;;;;;35.49;33.99;99436.28;5052956;28;20228;-70
2022/06/29 11:24:55;;;;;;;2.33;2.22;;;;;;;35.30;35.65;99436.09;5052393;28;20204;-71
2022/06/29 11:27:36;;;;;;;3.65;3.45;;;;;;;35.12;36.39;99425.19;5052702;28;20205;-71
2022/06/29 11:30:04;;;;;;;2.00;1.90;;;;;;;35.09;35.44;99422.91;5049224;28;20283;-70
2022/06/29 11:32:38;;;;;;;2.45;2.25;;;;;;;35.47;35.10;99427.69;5047797;28;20200;-70
2022/06/29 11:35:06;;;;;;;2.28;2.17;;;;;;;35.03;34.89;99426.38;5050800;28;20258;-71
2022/06/29 11:37:33;;;;;;;2.05;1.95;;;;;;;34.99;36.65;99425.16;5052878;28;20204;-70
2022/06/29 11:40:00;;;;;;;2.65;2.55;;;;;;;34.82;34.14;99434.53;5051110;28;20696;-69
2022/06/29 11:45:18;;;;;;;2.65;2.25;;;;;;;34.99;35.54;99422.50;5051775;28;20278;-72
2022/06/29 11:47:54;;;;;;;2.25;2.08;;;;;;;35.07;35.59;99400.97;5052469;28;20251;-71
2022/06/29 11:50:22;;;;;;;2.35;2.25;;;;;;;35.28;34.68;99416.81;5038327;28;20205;-76
2022/06/29 11:52:51;;;;;;;2.63;2.42;;;;;;;35.20;35.03;99417.00;5043103;28;20661;-76
2022/06/29 11:55:42;;;;;;;1.90;1.80;;;;;;;34.97;34.21;99405.88;5049012;28;20258;-70
2022/06/29 11:58:12;;;;;;;2.63;2.20;;;;;;;34.89;33.95;99413.25;5052034;28;20205;-76
2022/06/29 12:00:40;;;;;;;2.40;2.25;;;;;;;34.64;34.97;99410.31;5051638;28;20201;-75
2022/06/29 12:03:08;;;;;;;2.28;2.08;;;;;;;34.77;33.98;99405.00;5050576;28;20817;-74
2022/06/29 12:05:36;;;;;;;2.08;1.98;;;;;;;34.99;34.83;99403.84;5051002;28;20201;-71
2022/06/29 12:08:03;;;;;;;2.13;2.03;;;;;;;35.21;36.07;99407.19;5051533;28;20294;-71
2022/06/29 12:10:30;;;;;;;2.55;2.35;;;;;;;35.14;36.11;99396.50;5051653;28;20201;-71